This is the latest recevied weather packets stored in our database for station/object DL3MEB-6. If no packets are shown the sender has not sent any weather packets the latest 10 day(s).
| Time | Temp. | Humidity | Pressure | Rain* | Wind** | Luminosity | Snow |
|---|---|---|---|---|---|---|---|
| 1777361392 | 11.11° C | 54% | 1017.6 hPa | 0 mm | - | - | - |
| 1777360479 | 10.56° C | 55% | 1017.2 hPa | 0 mm | - | - | - |
| 1777359562 | 10.56° C | 55% | 1017.3 hPa | 0 mm | - | - | - |
| 1777358657 | 10° C | 58% | 1017.2 hPa | 0 mm | - | - | - |
| 1777357757 | 9.44° C | 60% | 1017.1 hPa | 0 mm | - | - | - |
| 1777356852 | 8.33° C | 64% | 1017 hPa | 0 mm | - | - | - |
| 1777355944 | 7.78° C | 66% | 1017 hPa | 0 mm | - | - | - |
| 1777355031 | 7.22° C | 69% | 1017.1 hPa | 0 mm | - | - | - |
| 1777354122 | 6.67° C | 70% | 1017 hPa | 0 mm | - | - | - |
| 1777353216 | 6.67° C | 70% | 1016.7 hPa | 0 mm | - | - | - |
| 1777352308 | 6.11° C | 71% | 1016.5 hPa | 0 mm | - | - | - |
| 1777351404 | 6.11° C | 71% | 1016.5 hPa | 0 mm | - | - | - |
| 1777350504 | 6.11° C | 71% | 1016.5 hPa | 0 mm | - | - | - |
| 1777349598 | 6.11° C | 71% | 1016.6 hPa | 0 mm | - | - | - |
| 1777348689 | 6.11° C | 72% | 1016.6 hPa | 0 mm | - | - | - |
| 1777347785 | 6.11° C | 71% | 1016.7 hPa | 0 mm | - | - | - |
| 1777346882 | 6.11° C | 71% | 1016.7 hPa | 0 mm | - | - | - |
| 1777345975 | 6.11° C | 70% | 1016.6 hPa | 0 mm | - | - | - |
| 1777345065 | 6.11° C | 69% | 1016.6 hPa | 0 mm | - | - | - |
| 1777344159 | 6.67° C | 68% | 1016.7 hPa | 0 mm | - | - | - |
| 1777343254 | 6.67° C | 68% | 1016.6 hPa | 0 mm | - | - | - |
| 1777342347 | 6.67° C | 66% | 1016.5 hPa | 0 mm | - | - | - |
| 1777341441 | 7.22° C | 65% | 1016.5 hPa | 0 mm | - | - | - |
| 1777340537 | 7.22° C | 65% | 1016.6 hPa | 0 mm | - | - | - |
| 1777339631 | 7.78° C | 65% | 1016.5 hPa | 0 mm | - | - | - |
* Rain latest hour (hover to see other rain measurements)
** Current wind speed in m/s (hover to see current wind gust speed)